createdAt,value
2023-04-25T00:01:10.896Z,58.09
2023-04-25T00:03:40.299Z,56.89
2023-04-25T00:06:08.558Z,56.65
2023-04-25T00:08:36.352Z,57.15
2023-04-25T00:11:04.216Z,57.40
2023-04-25T00:13:31.984Z,57.29
2023-04-25T00:16:00.116Z,57.47
2023-04-25T00:18:31.130Z,58.48
2023-04-25T00:20:58.927Z,56.76
2023-04-25T00:23:26.777Z,56.53
2023-04-25T00:25:54.587Z,58.13
2023-04-25T00:28:22.386Z,57.31
2023-04-25T00:30:50.127Z,57.38
2023-04-25T00:33:17.941Z,56.58
2023-04-25T00:35:45.804Z,58.27
2023-04-25T00:38:13.781Z,57.71
2023-04-25T00:40:41.546Z,56.50
2023-04-25T00:43:09.317Z,57.30
2023-04-25T00:45:37.440Z,57.86
2023-04-25T00:48:05.317Z,57.57
2023-04-25T00:50:33.089Z,56.57
2023-04-25T00:53:00.857Z,57.96
2023-04-25T00:55:28.606Z,57.06
2023-04-25T00:57:56.398Z,57.47
2023-04-25T01:00:24.138Z,57.15
2023-04-25T01:02:52.436Z,58.79
2023-04-25T01:05:20.872Z,57.67
2023-04-25T01:07:49.291Z,56.41
2023-04-25T01:10:17.102Z,56.02
2023-04-25T01:12:44.853Z,57.01
2023-04-25T01:15:12.692Z,57.06
2023-04-25T01:17:41.425Z,56.06
2023-04-25T01:20:09.526Z,55.89
2023-04-25T01:22:37.290Z,56.71
2023-04-25T01:25:05.331Z,57.47
2023-04-25T01:27:33.176Z,56.70
2023-04-25T01:30:01.104Z,55.86
2023-04-25T01:32:29.102Z,56.37
2023-04-25T01:34:56.906Z,57.01
2023-04-25T01:37:24.647Z,56.43
2023-04-25T01:39:52.541Z,56.42
2023-04-25T01:42:20.335Z,57.28
2023-04-25T01:44:48.091Z,57.20
2023-04-25T01:47:15.959Z,56.48
2023-04-25T01:49:43.848Z,56.76
2023-04-25T01:52:11.693Z,57.23
2023-04-25T01:54:39.481Z,56.25
2023-04-25T01:57:07.241Z,56.45
2023-04-25T01:59:34.996Z,56.31
2023-04-25T02:02:05.702Z,55.49
2023-04-25T02:04:33.576Z,55.66
2023-04-25T02:07:01.613Z,57.59
2023-04-25T02:09:29.613Z,59.12
2023-04-25T02:11:57.496Z,61.57
2023-04-25T02:14:25.254Z,62.29
2023-04-25T02:16:53.418Z,63.56
2023-04-25T02:19:21.292Z,64.67
2023-04-25T02:21:49.151Z,65.33
2023-04-25T02:24:16.991Z,66.67
2023-04-25T02:26:45.172Z,66.69
2023-04-25T02:29:12.960Z,67.89
2023-04-25T02:31:40.821Z,68.08
2023-04-25T02:34:08.650Z,67.94
2023-04-25T02:36:37.464Z,68.21
2023-04-25T02:39:05.323Z,68.73
2023-04-25T02:41:33.091Z,69.03
2023-04-25T02:44:03.923Z,69.57
2023-04-25T02:46:38.974Z,69.35
2023-04-25T02:49:07.436Z,69.86
2023-04-25T02:51:35.273Z,69.56
2023-04-25T02:54:03.071Z,70.18
2023-04-25T02:56:30.965Z,69.43
2023-04-25T02:58:58.750Z,68.23
2023-04-25T03:01:26.646Z,66.67
2023-04-25T03:03:54.966Z,66.68
2023-04-25T03:06:23.088Z,66.82
2023-04-25T03:08:50.850Z,66.08
2023-04-25T03:11:18.631Z,64.89
2023-04-25T03:13:46.480Z,65.56
2023-04-25T03:16:14.291Z,65.54
2023-04-25T03:18:42.038Z,64.88
2023-04-25T03:21:09.879Z,65.47
2023-04-25T03:23:37.665Z,64.62
2023-04-25T03:26:05.989Z,64.55
2023-04-25T03:28:33.858Z,65.08
2023-04-25T03:31:01.634Z,64.30
2023-04-25T03:33:29.365Z,64.26
2023-04-25T03:35:57.273Z,65.17
2023-04-25T03:38:27.072Z,64.55
2023-04-25T03:40:55.121Z,64.62
2023-04-25T03:43:22.948Z,65.00
2023-04-25T03:45:50.710Z,64.09
2023-04-25T03:48:18.530Z,64.50
2023-04-25T03:50:46.292Z,65.56
2023-04-25T03:53:14.059Z,64.94
2023-04-25T03:55:43.507Z,63.49
2023-04-25T03:58:11.407Z,64.73
2023-04-25T04:00:39.161Z,64.85
2023-04-25T04:03:07.190Z,63.87
2023-04-25T04:05:35.431Z,65.06
2023-04-25T04:08:03.221Z,64.69
2023-04-25T04:10:31.040Z,63.51
2023-04-25T04:12:58.911Z,64.71
2023-04-25T04:15:26.723Z,64.26
2023-04-25T04:17:54.553Z,64.72
2023-04-25T04:20:22.433Z,64.75
2023-04-25T04:22:50.189Z,64.02
2023-04-25T04:25:17.912Z,63.36
2023-04-25T04:27:46.879Z,64.99
2023-04-25T04:30:14.636Z,64.28
2023-04-25T04:32:42.391Z,62.98
2023-04-25T04:35:11.055Z,62.71
2023-04-25T04:37:38.926Z,63.54
2023-04-25T04:40:07.184Z,63.48
2023-04-25T04:42:35.098Z,62.46
2023-04-25T04:45:03.526Z,63.60
2023-04-25T04:47:34.590Z,63.19
2023-04-25T04:50:02.382Z,62.85
2023-04-25T04:52:30.142Z,63.93
2023-04-25T04:54:58.266Z,63.12
2023-04-25T04:57:26.094Z,62.75
2023-04-25T04:59:53.854Z,62.34
2023-04-25T05:02:22.101Z,63.53
2023-04-25T05:04:50.122Z,63.57
2023-04-25T05:07:17.961Z,63.29
2023-04-25T05:09:45.713Z,64.51
2023-04-25T05:12:13.546Z,64.03
2023-04-25T05:14:41.305Z,63.81
2023-04-25T05:17:10.505Z,63.99
2023-04-25T05:19:38.300Z,63.30
2023-04-25T05:22:06.233Z,63.26
2023-04-25T05:24:33.994Z,63.74
2023-04-25T05:27:01.997Z,63.19
2023-04-25T05:29:29.798Z,62.44
2023-04-25T05:31:57.657Z,63.27
2023-04-25T05:34:25.519Z,62.99
2023-04-25T05:36:53.293Z,62.27
2023-04-25T05:39:21.085Z,62.16
2023-04-25T05:41:48.896Z,63.43
2023-04-25T05:44:17.900Z,63.16
2023-04-25T05:46:45.688Z,62.30
2023-04-25T05:49:13.506Z,62.04
2023-04-25T05:51:41.290Z,62.18
2023-04-25T05:54:09.032Z,62.12
2023-04-25T05:56:36.851Z,62.43
2023-04-25T05:59:10.635Z,63.11
2023-04-25T06:01:38.457Z,62.10
2023-04-25T06:04:06.676Z,62.59
2023-04-25T06:06:34.686Z,62.64
2023-04-25T06:09:02.626Z,62.48
2023-04-25T06:11:30.447Z,63.34
2023-04-25T06:13:58.306Z,62.73
2023-04-25T06:16:27.990Z,61.56
2023-04-25T06:18:55.998Z,63.02
2023-04-25T06:21:23.834Z,62.67
2023-04-25T06:23:51.946Z,62.03
2023-04-25T06:26:19.919Z,62.70
2023-04-25T06:28:47.776Z,62.22
2023-04-25T06:31:15.615Z,61.73
2023-04-25T06:33:43.483Z,61.24
2023-04-25T06:36:11.677Z,62.32
2023-04-25T06:38:39.464Z,61.37
2023-04-25T06:41:07.293Z,60.86
2023-04-25T06:43:35.509Z,61.54
2023-04-25T06:46:03.308Z,61.80
2023-04-25T06:48:31.055Z,61.11
2023-04-25T06:50:58.849Z,60.18
2023-04-25T06:53:26.713Z,59.94
2023-04-25T06:55:54.480Z,60.67
2023-04-25T06:58:22.244Z,60.83
2023-04-25T07:00:50.164Z,59.80
2023-04-25T07:03:18.183Z,59.62
2023-04-25T07:05:47.868Z,60.91
2023-04-25T07:08:15.709Z,60.03
2023-04-25T07:10:43.462Z,59.55
2023-04-25T07:13:14.263Z,59.09
2023-04-25T07:15:42.087Z,59.97
2023-04-25T07:18:09.863Z,59.12
2023-04-25T07:20:37.625Z,58.86
2023-04-25T07:23:05.418Z,58.31
2023-04-25T07:25:33.286Z,59.44
2023-04-25T07:28:01.124Z,59.52
2023-04-25T07:30:29.447Z,58.90
2023-04-25T07:32:57.692Z,60.21
2023-04-25T07:35:25.433Z,59.37
2023-04-25T07:37:53.653Z,58.61
2023-04-25T07:40:21.526Z,58.68
2023-04-25T07:42:49.718Z,58.76
2023-04-25T07:45:18.343Z,59.87
2023-04-25T07:47:46.908Z,59.38
2023-04-25T07:50:14.718Z,58.45
2023-04-25T07:52:42.561Z,58.29
2023-04-25T07:55:10.300Z,59.48
2023-04-25T07:57:38.154Z,59.57
2023-04-25T08:00:06.977Z,58.72
2023-04-25T08:02:34.936Z,57.91
2023-04-25T08:05:03.096Z,59.41
2023-04-25T08:07:31.070Z,59.08
2023-04-25T08:09:58.899Z,59.09
2023-04-25T08:12:26.940Z,58.36
2023-04-25T08:14:55.295Z,58.59
2023-04-25T08:17:23.084Z,59.98
2023-04-25T08:19:51.114Z,59.39
2023-04-25T08:22:18.943Z,59.22
2023-04-25T08:24:46.695Z,59.27
2023-04-25T08:27:14.543Z,59.41
2023-04-25T08:29:42.390Z,60.90
2023-04-25T08:32:10.188Z,61.23
2023-04-25T08:34:40.055Z,60.48
2023-04-25T08:37:07.926Z,60.10
2023-04-25T08:39:35.673Z,60.96
2023-04-25T08:44:24.611Z,61.72
2023-04-25T08:46:52.629Z,62.34
2023-04-25T08:49:21.041Z,62.03
2023-04-25T08:51:49.201Z,62.68
2023-04-25T08:56:38.224Z,63.01
2023-04-25T08:59:06.273Z,62.59
2023-04-25T09:01:34.118Z,62.79
2023-04-25T09:04:02.205Z,62.98
2023-04-25T09:06:30.262Z,63.33
2023-04-25T09:08:58.030Z,63.25
2023-04-25T09:11:26.268Z,63.16
2023-04-25T09:13:54.017Z,63.47
2023-04-25T09:16:23.683Z,63.89
2023-04-25T09:18:52.225Z,64.23
2023-04-25T09:21:20.057Z,64.22
2023-04-25T09:23:47.841Z,64.11
2023-04-25T09:26:15.660Z,64.07
2023-04-25T09:28:45.022Z,64.13
2023-04-25T09:31:13.537Z,64.09
2023-04-25T09:33:42.175Z,64.19
2023-04-25T09:36:10.029Z,64.05
2023-04-25T09:38:37.765Z,64.32
2023-04-25T09:41:05.499Z,64.59
2023-04-25T09:43:33.304Z,64.79
2023-04-25T09:46:02.258Z,64.35
2023-04-25T09:49:49.766Z,65.24
2023-04-25T09:52:17.758Z,65.49
2023-04-25T09:54:45.534Z,65.84
2023-04-25T09:57:13.715Z,65.74
2023-04-25T09:59:41.635Z,65.84
2023-04-25T10:02:09.425Z,65.67
2023-04-25T10:04:37.442Z,65.92
2023-04-25T10:07:05.376Z,66.08
2023-04-25T10:09:35.771Z,65.98
2023-04-25T10:12:03.667Z,66.27
2023-04-25T10:14:31.475Z,66.32
2023-04-25T10:16:59.273Z,66.50
2023-04-25T10:19:27.185Z,66.25
2023-04-25T10:21:54.943Z,66.34
2023-04-25T10:24:22.692Z,67.00
2023-04-25T10:26:50.472Z,67.30
2023-04-25T10:29:18.380Z,67.93
2023-04-25T10:31:46.394Z,68.19
2023-04-25T10:34:14.332Z,68.68
2023-04-25T10:36:42.177Z,68.38
2023-04-25T10:39:11.251Z,66.55
2023-04-25T10:41:39.078Z,65.51
2023-04-25T10:44:06.945Z,64.17
2023-04-25T10:46:36.044Z,64.72
2023-04-25T10:49:03.911Z,64.51
2023-04-25T10:51:43.442Z,63.22
2023-04-25T10:54:19.169Z,62.31
2023-04-25T10:56:46.920Z,63.29
2023-04-25T10:59:14.739Z,62.72
2023-04-25T11:01:42.781Z,61.77
2023-04-25T11:04:10.802Z,60.70
2023-04-25T11:06:39.219Z,61.59
2023-04-25T11:09:07.006Z,61.87
2023-04-25T11:11:34.843Z,61.54
2023-04-25T11:14:02.562Z,62.24
2023-04-25T11:16:30.328Z,61.40
2023-04-25T11:18:58.120Z,61.49
2023-04-25T11:21:25.934Z,62.19
